Tobyhanna, Pennsylvania
Current Conditions -  °F | °C
As of 7:53 PM on Saturday 22 Nov 2014 (Local Time) from KMPO Reporting Station
Overcast Overcast  
Wind Chill: 28°   Ceiling: 4500
Heat Index: 36°   Visibility: 10mi
Dew Point: 15°   Wind: 12mph
Humidity: 43%   Direction: 260°W
Pressure: 30.15"   Gusts: 22mph
Location:  41.18°N, 75.42°W
Report Text: KMPO 230053Z AUTO 26010G19KT 10SM BKN045 OVC095 02/M09 A3015 RMK AO2 SLP233 T00221094
Loading
Personal Weather Stations






























Interactive Weather Map New forecast layout! Learn more

10-Day Weather Forecast

Advertisements
Track Severe Weather on mobile